createdAt,value
2022-10-17T00:01:07.306Z,13.83
2022-10-17T00:03:36.142Z,16.00
2022-10-17T00:06:10.282Z,22.90
2022-10-17T00:08:37.979Z,31.00
2022-10-17T00:11:09.214Z,20.20
2022-10-17T00:13:36.323Z,16.60
2022-10-17T00:16:03.572Z,16.00
2022-10-17T00:18:30.269Z,20.90
2022-10-17T00:20:57.306Z,16.87
2022-10-17T00:23:24.265Z,16.37
2022-10-17T00:26:06.038Z,24.50
2022-10-17T00:28:33.099Z,41.80
2022-10-17T00:31:02.526Z,35.63
2022-10-17T00:33:29.918Z,21.03
2022-10-17T00:36:14.588Z,27.00
2022-10-17T00:38:43.795Z,23.00
2022-10-17T00:41:12.684Z,17.93
2022-10-17T00:44:17.042Z,14.83
2022-10-17T00:46:43.750Z,16.60
2022-10-17T00:49:12.536Z,12.50
2022-10-17T00:51:49.325Z,16.80
2022-10-17T00:54:19.229Z,13.40
2022-10-17T00:56:48.481Z,11.73
2022-10-17T00:59:17.781Z,11.00
2022-10-17T01:01:54.059Z,16.47
2022-10-17T01:04:21.419Z,18.13
2022-10-17T01:06:48.065Z,15.17
2022-10-17T01:09:14.757Z,13.87
2022-10-17T01:11:59.951Z,12.30
2022-10-17T01:15:04.240Z,10.98
2022-10-17T01:17:55.641Z,13.17
2022-10-17T01:20:37.526Z,12.50
2022-10-17T01:23:29.009Z,16.47
2022-10-17T01:26:33.122Z,14.30
2022-10-17T01:29:41.904Z,14.87
2022-10-17T01:32:29.791Z,28.00
2022-10-17T01:35:04.206Z,15.00
2022-10-17T01:37:33.205Z,17.17
2022-10-17T01:40:05.978Z,15.27
2022-10-17T01:42:32.617Z,13.10
2022-10-17T01:45:10.699Z,12.90
2022-10-17T01:47:38.628Z,11.37
2022-10-17T01:50:16.955Z,13.13
2022-10-17T01:52:48.803Z,12.37
2022-10-17T01:55:20.557Z,15.23
2022-10-17T01:57:52.014Z,18.87
2022-10-17T02:00:24.824Z,14.40
2022-10-17T02:02:57.398Z,14.27
2022-10-17T02:05:30.914Z,11.50
2022-10-17T02:07:57.655Z,12.70
2022-10-17T02:11:06.245Z,28.43
2022-10-17T02:13:38.806Z,60.33
2022-10-17T02:16:18.922Z,41.57
2022-10-17T02:19:22.965Z,21.33
2022-10-17T02:22:01.798Z,25.60
2022-10-17T02:24:49.600Z,14.47
2022-10-17T02:27:28.731Z,10.10
2022-10-17T02:30:24.685Z,11.53
2022-10-17T02:33:20.529Z,8.43
2022-10-17T02:35:54.015Z,10.63
2022-10-17T02:38:23.275Z,10.50
2022-10-17T02:40:52.327Z,10.10
2022-10-17T02:43:20.818Z,10.03
2022-10-17T02:45:48.160Z,13.67
2022-10-17T02:48:33.022Z,12.37
2022-10-17T02:51:16.130Z,13.23
2022-10-17T02:53:45.839Z,23.50
2022-10-17T02:56:18.947Z,16.80
2022-10-17T02:58:54.843Z,16.80
2022-10-17T03:01:22.125Z,15.23
2022-10-17T03:03:48.871Z,14.87
2022-10-17T03:06:15.954Z,12.07
2022-10-17T03:08:42.630Z,13.17
2022-10-17T03:11:09.305Z,12.67
2022-10-17T03:13:39.051Z,13.57
2022-10-17T03:16:06.766Z,15.03
2022-10-17T03:18:33.451Z,13.03
2022-10-17T03:21:00.130Z,19.70
2022-10-17T03:23:26.789Z,14.53
2022-10-17T03:25:53.649Z,17.03
2022-10-17T03:28:20.251Z,13.73
2022-10-17T03:30:46.877Z,20.30
2022-10-17T03:33:13.570Z,20.43
2022-10-17T03:35:40.768Z,27.77
2022-10-17T03:38:07.454Z,55.67
2022-10-17T03:40:34.113Z,81.50
2022-10-17T03:43:00.801Z,22.37
2022-10-17T03:45:27.959Z,42.97
2022-10-17T03:47:54.562Z,19.83
2022-10-17T03:50:21.242Z,23.13
2022-10-17T03:52:49.195Z,23.07
2022-10-17T03:55:16.954Z,14.33
2022-10-17T03:57:45.558Z,35.40
2022-10-17T04:00:13.010Z,41.57
2022-10-17T04:02:39.692Z,20.87
2022-10-17T04:05:07.003Z,16.43
2022-10-17T04:07:33.672Z,34.53
2022-10-17T04:10:00.592Z,40.40
2022-10-17T04:12:27.544Z,147.40
2022-10-17T04:14:54.692Z,147.30
2022-10-17T04:17:21.527Z,75.77
2022-10-17T04:19:49.702Z,64.00
2022-10-17T04:22:16.467Z,60.13
2022-10-17T04:24:43.159Z,56.47
2022-10-17T04:27:09.800Z,32.57
2022-10-17T04:29:36.486Z,35.17
2022-10-17T04:32:03.412Z,49.87
2022-10-17T04:34:30.120Z,44.10
2022-10-17T04:36:56.758Z,32.17
2022-10-17T04:39:23.509Z,33.00
2022-10-17T04:41:50.226Z,24.73
2022-10-17T04:44:16.870Z,26.27
2022-10-17T04:46:44.220Z,31.13
2022-10-17T04:49:10.906Z,27.77
2022-10-17T04:51:38.530Z,32.77
2022-10-17T04:54:05.394Z,22.93
2022-10-17T04:56:32.063Z,23.53
2022-10-17T04:59:00.066Z,30.83
2022-10-17T05:01:27.238Z,30.57
2022-10-17T05:03:54.259Z,36.57
2022-10-17T05:06:23.629Z,26.20
2022-10-17T05:08:50.881Z,31.83
2022-10-17T05:11:28.724Z,37.27
2022-10-17T05:14:00.672Z,28.07
2022-10-17T05:16:28.703Z,31.50
2022-10-17T05:18:57.517Z,32.47
2022-10-17T05:21:27.071Z,27.77
2022-10-17T05:23:54.400Z,38.43
2022-10-17T05:26:22.165Z,33.10
2022-10-17T05:28:48.988Z,35.90
2022-10-17T05:31:15.757Z,37.23
2022-10-17T05:33:42.447Z,40.83
2022-10-17T05:36:09.212Z,64.80
2022-10-17T05:38:35.986Z,47.20
2022-10-17T05:41:05.080Z,46.23
2022-10-17T05:43:33.345Z,45.30
2022-10-17T05:46:04.245Z,42.70
2022-10-17T05:48:30.914Z,41.33
2022-10-17T05:50:59.592Z,47.37
2022-10-17T05:53:26.942Z,43.63
2022-10-17T05:55:58.880Z,45.97
2022-10-17T05:58:45.565Z,41.23
2022-10-17T06:01:13.969Z,36.43
2022-10-17T06:03:40.723Z,41.47
2022-10-17T06:06:10.250Z,37.70
2022-10-17T06:08:37.412Z,35.35
2022-10-17T06:11:09.086Z,34.58
2022-10-17T06:13:37.196Z,26.88
2022-10-17T06:16:03.975Z,28.80
2022-10-17T06:18:30.730Z,26.27
2022-10-17T06:21:08.767Z,26.92
2022-10-17T06:23:35.463Z,24.52
2022-10-17T06:26:04.235Z,23.58
2022-10-17T06:28:31.156Z,21.40
2022-10-17T06:30:57.970Z,19.67
2022-10-17T06:33:24.817Z,21.58
2022-10-17T06:35:55.838Z,22.08
2022-10-17T06:38:22.595Z,22.98
2022-10-17T06:40:49.493Z,22.73
2022-10-17T06:43:16.210Z,39.22
2022-10-17T06:45:42.856Z,25.45
2022-10-17T06:48:09.559Z,21.63
2022-10-17T06:50:36.253Z,20.50
2022-10-17T06:53:03.540Z,21.35
2022-10-17T06:55:31.606Z,21.42
2022-10-17T06:57:58.356Z,20.90
2022-10-17T07:00:26.941Z,21.95
2022-10-17T07:02:53.736Z,15.30
2022-10-17T07:05:20.431Z,15.15
2022-10-17T07:07:49.706Z,11.65
2022-10-17T07:10:18.461Z,11.80
2022-10-17T07:12:45.921Z,15.25
2022-10-17T07:15:13.211Z,23.40
2022-10-17T07:17:40.165Z,13.52
2022-10-17T07:20:07.946Z,11.00
2022-10-17T07:22:34.568Z,5.32
2022-10-17T07:25:01.788Z,7.15
2022-10-17T07:27:29.104Z,7.32
2022-10-17T07:29:55.997Z,6.93
2022-10-17T07:32:22.708Z,7.53
2022-10-17T07:34:49.332Z,8.70
2022-10-17T07:37:16.099Z,5.80
2022-10-17T07:39:42.748Z,5.53
2022-10-17T07:42:10.316Z,4.75
2022-10-17T07:44:37.027Z,4.57
2022-10-17T07:47:04.392Z,4.22
2022-10-17T07:49:31.408Z,7.38
2022-10-17T07:51:58.119Z,4.47
2022-10-17T07:54:24.845Z,3.05
2022-10-17T07:56:51.547Z,4.65
2022-10-17T07:59:19.247Z,3.50
2022-10-17T08:01:45.980Z,3.90
2022-10-17T08:04:12.828Z,4.55
2022-10-17T08:06:39.506Z,4.18
2022-10-17T08:09:06.683Z,4.60
2022-10-17T08:11:33.434Z,2.85
2022-10-17T08:14:00.088Z,4.63
2022-10-17T08:16:26.835Z,6.80
2022-10-17T08:18:53.890Z,3.17
2022-10-17T08:21:20.584Z,3.97
2022-10-17T08:23:47.293Z,4.13
2022-10-17T08:26:17.392Z,3.38
2022-10-17T08:28:44.439Z,3.47
2022-10-17T08:31:13.650Z,3.15
2022-10-17T08:33:41.842Z,3.08
2022-10-17T08:36:09.728Z,3.95
2022-10-17T08:38:40.369Z,2.75
2022-10-17T08:41:34.829Z,3.85
2022-10-17T08:44:05.635Z,2.17
2022-10-17T08:46:37.781Z,4.03
2022-10-17T08:49:12.098Z,4.82
2022-10-17T08:51:47.990Z,4.32
2022-10-17T08:54:24.339Z,4.53
2022-10-17T08:56:54.807Z,5.55
2022-10-17T08:59:29.864Z,5.28
2022-10-17T09:02:18.204Z,8.65
2022-10-17T09:05:26.807Z,5.10
2022-10-17T09:08:16.609Z,4.68
2022-10-17T09:11:01.159Z,4.85
2022-10-17T09:13:45.553Z,3.50
2022-10-17T09:16:23.452Z,2.70
2022-10-17T09:19:07.317Z,3.78
2022-10-17T09:21:44.528Z,3.42
2022-10-17T09:24:46.309Z,3.95
2022-10-17T09:27:39.395Z,2.58
2022-10-17T09:30:46.419Z,2.92
2022-10-17T09:36:24.618Z,3.53
2022-10-17T09:38:58.672Z,4.10
2022-10-17T09:41:46.781Z,3.50
2022-10-17T09:44:41.391Z,3.20
2022-10-17T09:47:39.430Z,2.25
2022-10-17T09:50:20.786Z,3.90
2022-10-17T09:52:50.699Z,3.00
2022-10-17T09:55:21.668Z,3.22
2022-10-17T09:58:08.363Z,3.38
2022-10-17T10:00:41.808Z,2.40
2022-10-17T10:03:19.963Z,3.80
2022-10-17T10:06:06.293Z,4.43
2022-10-17T10:08:36.536Z,19.30
2022-10-17T10:11:13.380Z,2.92
2022-10-17T10:13:41.036Z,3.42
2022-10-17T10:16:17.079Z,2.83
2022-10-17T10:18:47.418Z,3.70
2022-10-17T10:21:22.394Z,2.97
2022-10-17T10:24:10.818Z,1.73
2022-10-17T10:26:47.713Z,2.05
2022-10-17T10:29:26.780Z,4.40
2022-10-17T10:34:47.506Z,2.72
2022-10-17T10:37:38.748Z,2.38
2022-10-17T10:40:44.622Z,3.58
2022-10-17T10:43:42.209Z,2.30
2022-10-17T10:46:29.933Z,2.20
2022-10-17T10:49:00.351Z,2.55
2022-10-17T10:51:45.028Z,2.95
2022-10-17T10:54:18.005Z,1.90
2022-10-17T10:56:53.555Z,2.80
2022-10-17T10:59:33.311Z,3.30
2022-10-17T11:02:18.033Z,4.35
2022-10-17T11:04:52.831Z,4.57
2022-10-17T11:07:26.525Z,2.50
2022-10-17T11:10:12.274Z,4.22
2022-10-17T11:12:38.930Z,4.90
2022-10-17T11:15:25.798Z,8.07
2022-10-17T11:17:59.238Z,2.42
2022-10-17T11:20:58.280Z,3.60
2022-10-17T11:23:34.318Z,3.08
2022-10-17T11:26:07.853Z,2.88
2022-10-17T11:28:34.708Z,3.38
2022-10-17T11:31:07.968Z,4.57
2022-10-17T11:33:59.819Z,1.83
2022-10-17T11:36:30.819Z,3.38
2022-10-17T11:39:03.752Z,4.82
2022-10-17T11:41:43.822Z,4.22
2022-10-17T11:44:29.903Z,3.22
2022-10-17T11:47:01.869Z,4.03
2022-10-17T11:49:38.196Z,4.38
2022-10-17T11:52:51.738Z,2.65
2022-10-17T11:55:27.467Z,4.50
2022-10-17T11:58:33.106Z,3.67
2022-10-17T12:01:05.797Z,2.08
2022-10-17T12:03:49.649Z,2.97
2022-10-17T12:06:16.317Z,2.45
2022-10-17T12:09:02.659Z,3.90
2022-10-17T12:11:41.113Z,2.90
2022-10-17T12:14:39.063Z,1.90
2022-10-17T12:17:23.931Z,1.88
2022-10-17T12:19:50.682Z,3.10
2022-10-17T12:22:21.833Z,3.03
2022-10-17T12:25:04.538Z,3.40
2022-10-17T12:27:46.071Z,7.80
2022-10-17T12:30:12.820Z,5.28
2022-10-17T12:33:05.623Z,3.20
2022-10-17T12:35:35.947Z,2.00
2022-10-17T12:38:19.372Z,3.30
2022-10-17T12:40:50.615Z,2.53
2022-10-17T12:43:17.207Z,3.10
2022-10-17T12:45:53.921Z,4.13
2022-10-17T12:48:40.474Z,3.00
2022-10-17T12:51:34.226Z,3.45
2022-10-17T12:54:15.105Z,2.83
2022-10-17T12:56:47.832Z,2.67
2022-10-17T12:59:16.740Z,3.65
2022-10-17T13:01:51.735Z,5.22
2022-10-17T13:06:54.588Z,3.42
2022-10-17T13:09:35.386Z,4.35
2022-10-17T13:12:05.093Z,4.25
2022-10-17T13:14:34.046Z,4.15
2022-10-17T13:17:03.721Z,3.35
2022-10-17T13:19:39.812Z,1.60
2022-10-17T13:22:18.289Z,2.78
2022-10-17T13:24:45.720Z,3.28
2022-10-17T13:27:26.879Z,3.40
2022-10-17T13:29:56.835Z,4.35
2022-10-17T13:32:25.512Z,3.20
2022-10-17T13:35:07.274Z,3.90
2022-10-17T13:37:35.453Z,4.43
2022-10-17T13:40:17.543Z,2.47
2022-10-17T13:42:51.152Z,2.22
2022-10-17T13:45:24.495Z,1.67
2022-10-17T13:47:51.365Z,2.10
2022-10-17T13:50:44.283Z,0.95
2022-10-17T13:53:31.478Z,1.92
2022-10-17T13:56:23.239Z,4.03
2022-10-17T13:58:52.832Z,1.67
2022-10-17T14:01:21.313Z,2.13
2022-10-17T14:03:51.799Z,1.42
2022-10-17T14:06:25.212Z,1.58
2022-10-17T14:09:05.446Z,2.08
2022-10-17T14:11:44.220Z,1.90
2022-10-17T14:14:23.648Z,2.55
2022-10-17T14:16:50.386Z,3.88
2022-10-17T14:19:28.904Z,4.03
2022-10-17T14:22:14.118Z,2.42
2022-10-17T14:24:42.323Z,5.50
2022-10-17T14:27:27.464Z,3.40
2022-10-17T14:29:56.129Z,1.95
2022-10-17T14:32:22.872Z,6.47
2022-10-17T14:34:58.356Z,6.15
2022-10-17T14:37:45.000Z,6.47
2022-10-17T14:40:20.862Z,10.02
2022-10-17T14:42:48.418Z,5.32
2022-10-17T14:45:23.784Z,5.25
2022-10-17T14:47:52.864Z,4.75
2022-10-17T14:50:28.485Z,4.90
2022-10-17T14:53:10.270Z,6.07
2022-10-17T14:55:38.727Z,5.68
2022-10-17T14:58:22.759Z,5.00
2022-10-17T15:00:49.409Z,6.22
2022-10-17T15:03:19.223Z,7.88
2022-10-17T15:05:50.011Z,8.32
2022-10-17T15:08:18.544Z,6.68
2022-10-17T15:10:46.834Z,9.18
2022-10-17T15:13:27.699Z,10.38
2022-10-17T15:15:55.207Z,10.48
2022-10-17T15:18:21.886Z,11.50
2022-10-17T15:20:55.251Z,33.58
2022-10-17T15:23:31.447Z,33.45
2022-10-17T15:25:58.081Z,41.22
2022-10-17T15:28:24.774Z,38.45
2022-10-17T15:30:51.514Z,31.27
2022-10-17T15:33:18.249Z,22.75
2022-10-17T15:35:45.082Z,15.75
2022-10-17T15:38:17.139Z,14.07
2022-10-17T15:40:43.828Z,18.65
2022-10-17T15:43:10.507Z,60.55
2022-10-17T15:45:37.902Z,45.50
2022-10-17T15:48:07.388Z,46.35
2022-10-17T15:50:34.558Z,35.00
2022-10-17T15:53:01.197Z,38.42
2022-10-17T15:55:28.052Z,45.65
2022-10-17T15:57:54.845Z,54.78
2022-10-17T16:00:23.774Z,57.72
2022-10-17T16:02:51.000Z,24.50
2022-10-17T16:05:23.454Z,19.10
2022-10-17T16:07:50.583Z,22.83
2022-10-17T16:10:17.787Z,22.55
2022-10-17T16:12:45.041Z,27.98
2022-10-17T16:15:23.528Z,23.35
2022-10-17T16:17:51.166Z,26.83
2022-10-17T16:20:18.498Z,29.25
2022-10-17T16:22:46.456Z,30.77
2022-10-17T16:25:21.220Z,37.00
2022-10-17T16:27:50.505Z,31.35
2022-10-17T16:30:17.773Z,21.83
2022-10-17T16:32:44.713Z,21.73
2022-10-17T16:35:19.054Z,26.13
2022-10-17T16:37:45.787Z,27.42
2022-10-17T16:40:12.492Z,36.25
2022-10-17T16:42:39.173Z,28.55
2022-10-17T16:45:06.407Z,21.92
2022-10-17T16:47:33.058Z,26.83
2022-10-17T16:49:59.901Z,28.17
2022-10-17T16:52:26.733Z,25.77
2022-10-17T16:54:53.495Z,27.25
2022-10-17T16:57:20.384Z,37.65
2022-10-17T16:59:47.002Z,32.58
2022-10-17T17:02:16.359Z,33.50
2022-10-17T17:04:45.723Z,34.15
2022-10-17T17:07:12.515Z,30.33
2022-10-17T17:09:39.879Z,32.30
2022-10-17T17:12:06.707Z,28.65
2022-10-17T17:14:33.340Z,26.55
2022-10-17T17:17:00.050Z,29.98
2022-10-17T17:19:26.727Z,28.73
2022-10-17T17:21:53.442Z,35.63
2022-10-17T17:24:21.595Z,38.80
2022-10-17T17:26:56.047Z,28.50
2022-10-17T17:29:24.847Z,26.55
2022-10-17T17:31:51.905Z,30.33
2022-10-17T17:34:18.666Z,27.92
2022-10-17T17:36:45.645Z,20.90
2022-10-17T17:39:13.996Z,22.10
2022-10-17T17:41:42.072Z,27.65
2022-10-17T17:44:13.970Z,22.58
2022-10-17T17:46:43.695Z,27.80
2022-10-17T17:49:11.632Z,30.90
2022-10-17T17:51:38.787Z,28.10
2022-10-17T17:54:05.508Z,27.85
2022-10-17T17:56:32.423Z,23.45
2022-10-17T17:59:02.941Z,23.50
2022-10-17T18:01:32.023Z,35.97
2022-10-17T18:03:59.420Z,55.17
2022-10-17T18:06:27.485Z,44.60
2022-10-17T18:08:57.977Z,47.97
2022-10-17T18:11:25.728Z,82.38
2022-10-17T18:14:05.374Z,29.05
2022-10-17T18:16:33.648Z,99.07
2022-10-17T18:19:06.741Z,57.13
2022-10-17T18:21:34.600Z,25.27
2022-10-17T18:24:01.808Z,16.80
2022-10-17T18:26:28.561Z,13.57
2022-10-17T18:28:55.302Z,17.73
2022-10-17T18:31:24.555Z,38.38
2022-10-17T18:33:53.020Z,76.65
2022-10-17T18:36:20.473Z,35.00
2022-10-17T18:38:47.175Z,33.85
2022-10-17T18:41:17.205Z,36.90
2022-10-17T18:43:45.659Z,36.92
2022-10-17T18:46:15.367Z,59.97
2022-10-17T18:48:44.664Z,33.72
2022-10-17T18:51:12.488Z,43.50
2022-10-17T18:53:41.283Z,27.02
2022-10-17T18:56:08.674Z,40.42
2022-10-17T18:58:37.422Z,34.67
2022-10-17T19:01:06.102Z,46.60
2022-10-17T19:03:32.920Z,34.75
2022-10-17T19:06:07.261Z,43.45
2022-10-17T19:08:35.173Z,48.22
2022-10-17T19:11:10.334Z,31.17
2022-10-17T19:13:37.015Z,44.92
2022-10-17T19:16:12.405Z,31.63
2022-10-17T19:18:39.465Z,43.50
2022-10-17T19:21:08.646Z,40.60
2022-10-17T19:23:36.437Z,45.15
2022-10-17T19:26:08.288Z,37.22
2022-10-17T19:28:36.786Z,27.73
2022-10-17T19:31:05.122Z,15.38
2022-10-17T19:33:32.915Z,27.10
2022-10-17T19:36:02.350Z,21.67
2022-10-17T19:38:29.494Z,25.25
2022-10-17T19:40:56.386Z,14.23
2022-10-17T19:43:23.491Z,12.60
2022-10-17T19:45:58.929Z,10.48
2022-10-17T19:48:26.599Z,20.48
2022-10-17T19:50:54.123Z,22.75
2022-10-17T19:53:23.345Z,23.40
2022-10-17T19:55:50.913Z,29.23
2022-10-17T19:58:17.586Z,30.85
2022-10-17T20:00:52.806Z,27.45
2022-10-17T20:03:19.416Z,23.67
2022-10-17T20:05:46.511Z,17.92
2022-10-17T20:08:14.036Z,18.92
2022-10-17T20:10:41.306Z,19.42
2022-10-17T20:13:08.264Z,31.88
2022-10-17T20:15:35.791Z,30.05
2022-10-17T20:18:03.100Z,32.42
2022-10-17T20:20:30.048Z,32.30
2022-10-17T20:22:56.829Z,31.70
2022-10-17T20:25:23.601Z,37.90
2022-10-17T20:27:50.267Z,32.92
2022-10-17T20:30:16.997Z,34.33
2022-10-17T20:32:43.710Z,43.58
2022-10-17T20:35:10.444Z,38.15
2022-10-17T20:37:41.632Z,43.40
2022-10-17T20:40:33.571Z,17.55
2022-10-17T20:42:56.613Z,14.55
2022-10-17T20:45:37.458Z,15.55
2022-10-17T20:48:15.290Z,18.25
2022-10-17T20:50:43.545Z,29.38
2022-10-17T20:53:35.482Z,47.20
2022-10-17T20:56:09.307Z,20.30
2022-10-17T20:58:36.210Z,24.48
2022-10-17T21:01:10.610Z,26.40
2022-10-17T21:03:42.380Z,22.88
2022-10-17T21:08:39.093Z,29.13
2022-10-17T21:11:17.734Z,26.42
2022-10-17T21:13:45.487Z,32.05
2022-10-17T21:16:14.920Z,38.33
2022-10-17T21:18:42.800Z,18.40
2022-10-17T21:21:15.658Z,18.27
2022-10-17T21:23:46.039Z,15.52
2022-10-17T21:26:17.287Z,14.93
2022-10-17T21:28:45.372Z,13.40
2022-10-17T21:31:22.694Z,16.70
2022-10-17T21:33:54.836Z,20.83
2022-10-17T21:36:22.385Z,20.02
2022-10-17T21:38:51.133Z,22.80
2022-10-17T21:41:19.699Z,28.42
2022-10-17T21:43:47.252Z,15.00
2022-10-17T21:46:17.154Z,23.52
2022-10-17T21:48:45.535Z,23.30
2022-10-17T21:51:14.947Z,32.22
2022-10-17T21:53:42.474Z,38.65
2022-10-17T21:56:18.079Z,31.40
2022-10-17T21:58:45.546Z,27.30
2022-10-17T22:01:24.326Z,24.33
2022-10-17T22:03:53.708Z,53.60
2022-10-17T22:06:39.223Z,24.77
2022-10-17T22:09:18.694Z,14.10
2022-10-17T22:11:50.817Z,18.10
2022-10-17T22:14:19.341Z,27.35
2022-10-17T22:16:47.230Z,37.17
2022-10-17T22:19:16.494Z,23.52
2022-10-17T22:21:43.142Z,22.05
2022-10-17T22:24:14.107Z,13.32
2022-10-17T22:26:42.145Z,12.77
2022-10-17T22:29:09.596Z,12.68
2022-10-17T22:31:37.255Z,12.77
2022-10-17T22:34:07.035Z,13.02
2022-10-17T22:36:34.805Z,11.25
2022-10-17T22:39:01.701Z,13.15
2022-10-17T22:41:28.387Z,12.63
2022-10-17T22:43:55.059Z,10.85
2022-10-17T22:46:22.015Z,12.83
2022-10-17T22:48:48.713Z,16.10
2022-10-17T22:51:15.929Z,15.70
2022-10-17T22:53:42.807Z,24.83
2022-10-17T22:56:12.069Z,18.67
2022-10-17T22:58:39.256Z,17.48
2022-10-17T23:01:07.958Z,13.27
2022-10-17T23:03:35.848Z,15.90
2022-10-17T23:06:03.184Z,15.47
2022-10-17T23:08:30.572Z,16.43
2022-10-17T23:10:57.561Z,12.82
2022-10-17T23:13:24.303Z,15.20
2022-10-17T23:15:55.764Z,13.00
2022-10-17T23:18:23.508Z,18.73
2022-10-17T23:20:50.359Z,15.35
2022-10-17T23:23:17.739Z,11.50
2022-10-17T23:25:44.602Z,12.82
2022-10-17T23:28:11.922Z,19.03
2022-10-17T23:30:39.317Z,15.07
2022-10-17T23:33:06.750Z,14.73
2022-10-17T23:35:33.914Z,18.38
2022-10-17T23:38:00.549Z,15.40
2022-10-17T23:40:28.136Z,12.10
2022-10-17T23:43:04.638Z,13.60
2022-10-17T23:45:36.111Z,13.43
2022-10-17T23:48:05.155Z,15.13
2022-10-17T23:50:31.873Z,13.38
2022-10-17T23:52:58.590Z,10.97
2022-10-17T23:55:25.226Z,12.43
2022-10-17T23:57:52.073Z,12.95
